Terminal Aerodrome Forecast
Issued by NWS

Home | Current Version | Previous Version | Text Only | Print | Product List | Glossary On
Versions: 1 2 3 4 5 6 7 8 9 10 11 12
000
FTUS45 KABQ 290500
TAFGUP
TAF
KGUP 290531Z 2906/3006 VRB04KT P6SM SKC
     FM291700 22010KT P6SM FEW250
     FM291900 24015G25KT P6SM SCT250
     FM300100 21006KT P6SM BKN250=

USA.gov is the U.S. government's official web portal to all federal, state and local government web resources and services.